sensor_id;sensor_type;location;lat;lon;timestamp;temperature;humidity
31619;DHT22;18230;51.502;7.108;2024-01-30T00:03:48;10.50;99.90
31619;DHT22;18230;51.502;7.108;2024-01-30T00:08:49;10.40;99.90
31619;DHT22;18230;51.502;7.108;2024-01-30T00:13:49;10.40;99.90
31619;DHT22;18230;51.502;7.108;2024-01-30T00:18:51;10.30;99.90
31619;DHT22;18230;51.502;7.108;2024-01-30T00:23:52;10.40;99.90
31619;DHT22;18230;51.502;7.108;2024-01-30T00:28:52;10.30;99.90
31619;DHT22;18230;51.502;7.108;2024-01-30T00:33:53;10.30;99.90
31619;DHT22;18230;51.502;7.108;2024-01-30T00:38:53;10.30;99.90
31619;DHT22;18230;51.502;7.108;2024-01-30T00:43:54;10.30;99.90
31619;DHT22;18230;51.502;7.108;2024-01-30T00:48:54;10.30;99.90
31619;DHT22;18230;51.502;7.108;2024-01-30T00:53:55;10.30;99.90
31619;DHT22;18230;51.502;7.108;2024-01-30T00:58:56;10.30;99.90
31619;DHT22;18230;51.502;7.108;2024-01-30T01:03:56;10.30;99.90
31619;DHT22;18230;51.502;7.108;2024-01-30T01:08:58;10.20;99.90
31619;DHT22;18230;51.502;7.108;2024-01-30T01:13:59;10.30;99.90
31619;DHT22;18230;51.502;7.108;2024-01-30T01:18:59;10.30;99.90
31619;DHT22;18230;51.502;7.108;2024-01-30T01:24:00;10.30;99.90
31619;DHT22;18230;51.502;7.108;2024-01-30T01:29:01;10.20;99.90
31619;DHT22;18230;51.502;7.108;2024-01-30T01:34:01;10.20;99.90
31619;DHT22;18230;51.502;7.108;2024-01-30T01:39:02;10.20;99.90
31619;DHT22;18230;51.502;7.108;2024-01-30T01:44:03;10.20;99.90
31619;DHT22;18230;51.502;7.108;2024-01-30T01:49:05;10.20;99.90
31619;DHT22;18230;51.502;7.108;2024-01-30T01:54:06;10.10;99.90
31619;DHT22;18230;51.502;7.108;2024-01-30T01:59:08;10.10;99.90
31619;DHT22;18230;51.502;7.108;2024-01-30T02:04:08;10.10;99.90
31619;DHT22;18230;51.502;7.108;2024-01-30T02:09:09;10.10;99.90
31619;DHT22;18230;51.502;7.108;2024-01-30T02:14:10;10.20;99.90
31619;DHT22;18230;51.502;7.108;2024-01-30T02:19:10;10.10;99.90
31619;DHT22;18230;51.502;7.108;2024-01-30T02:24:11;10.00;99.90
31619;DHT22;18230;51.502;7.108;2024-01-30T02:29:12;10.00;99.90
31619;DHT22;18230;51.502;7.108;2024-01-30T02:34:13;10.00;99.90
31619;DHT22;18230;51.502;7.108;2024-01-30T02:39:14;10.10;99.90
31619;DHT22;18230;51.502;7.108;2024-01-30T02:44:15;10.00;99.90
31619;DHT22;18230;51.502;7.108;2024-01-30T02:49:16;10.00;99.90
31619;DHT22;18230;51.502;7.108;2024-01-30T02:54:16;10.00;99.90
31619;DHT22;18230;51.502;7.108;2024-01-30T02:59:17;9.90;99.90
31619;DHT22;18230;51.502;7.108;2024-01-30T03:04:17;9.90;99.90
31619;DHT22;18230;51.502;7.108;2024-01-30T03:09:18;9.90;99.90
31619;DHT22;18230;51.502;7.108;2024-01-30T03:14:19;10.00;99.90
31619;DHT22;18230;51.502;7.108;2024-01-30T03:19:19;9.80;99.90
31619;DHT22;18230;51.502;7.108;2024-01-30T03:24:20;9.90;99.90
31619;DHT22;18230;51.502;7.108;2024-01-30T03:29:21;9.80;99.90
31619;DHT22;18230;51.502;7.108;2024-01-30T03:34:21;9.80;99.90
31619;DHT22;18230;51.502;7.108;2024-01-30T03:39:22;9.80;99.90
31619;DHT22;18230;51.502;7.108;2024-01-30T03:44:23;9.90;99.90
31619;DHT22;18230;51.502;7.108;2024-01-30T03:49:23;9.70;99.90
31619;DHT22;18230;51.502;7.108;2024-01-30T03:54:24;9.80;99.90
31619;DHT22;18230;51.502;7.108;2024-01-30T03:59:25;9.70;99.90
31619;DHT22;18230;51.502;7.108;2024-01-30T04:04:25;9.70;99.90
31619;DHT22;18230;51.502;7.108;2024-01-30T04:09:26;9.70;99.90
31619;DHT22;18230;51.502;7.108;2024-01-30T04:14:28;9.70;99.90
31619;DHT22;18230;51.502;7.108;2024-01-30T04:19:29;9.80;99.90
31619;DHT22;18230;51.502;7.108;2024-01-30T04:24:30;9.80;99.90
31619;DHT22;18230;51.502;7.108;2024-01-30T04:29:30;9.70;99.90
31619;DHT22;18230;51.502;7.108;2024-01-30T04:34:32;9.70;99.90
31619;DHT22;18230;51.502;7.108;2024-01-30T04:39:33;9.70;99.90
31619;DHT22;18230;51.502;7.108;2024-01-30T04:44:34;9.70;99.90
31619;DHT22;18230;51.502;7.108;2024-01-30T04:49:35;9.80;99.90
31619;DHT22;18230;51.502;7.108;2024-01-30T04:54:35;9.90;99.90
31619;DHT22;18230;51.502;7.108;2024-01-30T04:59:36;9.80;99.90
31619;DHT22;18230;51.502;7.108;2024-01-30T05:04:37;9.80;99.90
31619;DHT22;18230;51.502;7.108;2024-01-30T05:09:37;9.80;99.90
31619;DHT22;18230;51.502;7.108;2024-01-30T05:14:38;9.80;99.90
31619;DHT22;18230;51.502;7.108;2024-01-30T05:19:39;9.80;99.90
31619;DHT22;18230;51.502;7.108;2024-01-30T05:24:39;9.90;99.90
31619;DHT22;18230;51.502;7.108;2024-01-30T05:29:40;9.90;99.90
31619;DHT22;18230;51.502;7.108;2024-01-30T05:34:43;9.90;99.90
31619;DHT22;18230;51.502;7.108;2024-01-30T05:39:44;9.90;99.90
31619;DHT22;18230;51.502;7.108;2024-01-30T05:44:45;10.00;99.90
31619;DHT22;18230;51.502;7.108;2024-01-30T05:49:45;10.00;99.90
31619;DHT22;18230;51.502;7.108;2024-01-30T05:54:46;10.00;99.90
31619;DHT22;18230;51.502;7.108;2024-01-30T05:59:46;10.10;99.90
31619;DHT22;18230;51.502;7.108;2024-01-30T06:04:48;10.10;99.90
31619;DHT22;18230;51.502;7.108;2024-01-30T06:09:49;10.10;99.90
31619;DHT22;18230;51.502;7.108;2024-01-30T06:14:49;10.20;99.90
31619;DHT22;18230;51.502;7.108;2024-01-30T06:19:50;10.10;99.90
31619;DHT22;18230;51.502;7.108;2024-01-30T06:24:50;10.10;99.90
31619;DHT22;18230;51.502;7.108;2024-01-30T06:29:51;10.20;99.90
31619;DHT22;18230;51.502;7.108;2024-01-30T06:34:52;10.10;99.90
31619;DHT22;18230;51.502;7.108;2024-01-30T06:39:52;10.20;99.90
31619;DHT22;18230;51.502;7.108;2024-01-30T06:44:53;10.30;99.90
31619;DHT22;18230;51.502;7.108;2024-01-30T06:49:54;10.20;99.90
31619;DHT22;18230;51.502;7.108;2024-01-30T06:54:54;10.40;99.90
31619;DHT22;18230;51.502;7.108;2024-01-30T06:59:55;10.30;99.90
31619;DHT22;18230;51.502;7.108;2024-01-30T07:04:55;10.40;99.90
31619;DHT22;18230;51.502;7.108;2024-01-30T07:09:56;10.40;99.90
31619;DHT22;18230;51.502;7.108;2024-01-30T07:14:57;10.40;99.90
31619;DHT22;18230;51.502;7.108;2024-01-30T07:19:59;10.40;99.90
31619;DHT22;18230;51.502;7.108;2024-01-30T07:25:00;10.50;99.90
31619;DHT22;18230;51.502;7.108;2024-01-30T07:30:01;10.50;99.90
31619;DHT22;18230;51.502;7.108;2024-01-30T07:35:02;10.50;99.90
31619;DHT22;18230;51.502;7.108;2024-01-30T07:40:03;10.50;99.90
31619;DHT22;18230;51.502;7.108;2024-01-30T07:45:04;10.50;99.90
31619;DHT22;18230;51.502;7.108;2024-01-30T07:50:05;10.60;99.90
31619;DHT22;18230;51.502;7.108;2024-01-30T07:55:06;10.60;99.90
31619;DHT22;18230;51.502;7.108;2024-01-30T08:00:08;10.70;99.90
31619;DHT22;18230;51.502;7.108;2024-01-30T08:05:09;10.70;99.90
31619;DHT22;18230;51.502;7.108;2024-01-30T08:10:12;10.80;99.90
31619;DHT22;18230;51.502;7.108;2024-01-30T08:15:13;10.80;99.90
31619;DHT22;18230;51.502;7.108;2024-01-30T08:20:14;11.00;99.90
31619;DHT22;18230;51.502;7.108;2024-01-30T08:25:15;10.90;99.90
31619;DHT22;18230;51.502;7.108;2024-01-30T08:30:15;11.00;99.90
31619;DHT22;18230;51.502;7.108;2024-01-30T08:35:16;11.00;99.90
31619;DHT22;18230;51.502;7.108;2024-01-30T08:40:17;11.10;99.90
31619;DHT22;18230;51.502;7.108;2024-01-30T08:45:18;11.20;99.90
31619;DHT22;18230;51.502;7.108;2024-01-30T08:50:19;11.10;99.90
31619;DHT22;18230;51.502;7.108;2024-01-30T08:55:20;11.20;99.90
31619;DHT22;18230;51.502;7.108;2024-01-30T09:00:20;11.20;99.90
31619;DHT22;18230;51.502;7.108;2024-01-30T09:05:21;11.30;99.90
31619;DHT22;18230;51.502;7.108;2024-01-30T09:10:22;11.40;99.90
31619;DHT22;18230;51.502;7.108;2024-01-30T09:15:22;11.50;99.90
31619;DHT22;18230;51.502;7.108;2024-01-30T09:20:23;11.50;99.90
31619;DHT22;18230;51.502;7.108;2024-01-30T09:25:24;11.60;99.90
31619;DHT22;18230;51.502;7.108;2024-01-30T09:30:24;11.70;99.90
31619;DHT22;18230;51.502;7.108;2024-01-30T09:35:25;11.60;99.90
31619;DHT22;18230;51.502;7.108;2024-01-30T09:40:26;11.60;99.90
31619;DHT22;18230;51.502;7.108;2024-01-30T09:45:26;11.70;99.90
31619;DHT22;18230;51.502;7.108;2024-01-30T09:50:27;11.90;99.90
31619;DHT22;18230;51.502;7.108;2024-01-30T09:55:28;12.00;99.90
31619;DHT22;18230;51.502;7.108;2024-01-30T10:00:29;12.10;99.90
31619;DHT22;18230;51.502;7.108;2024-01-30T10:05:31;12.20;99.90
31619;DHT22;18230;51.502;7.108;2024-01-30T10:10:35;12.30;99.90
31619;DHT22;18230;51.502;7.108;2024-01-30T10:15:37;12.30;99.90
31619;DHT22;18230;51.502;7.108;2024-01-30T10:20:39;12.50;99.90
31619;DHT22;18230;51.502;7.108;2024-01-30T10:25:39;12.60;99.90
31619;DHT22;18230;51.502;7.108;2024-01-30T10:30:40;12.60;99.90
31619;DHT22;18230;51.502;7.108;2024-01-30T10:35:41;12.70;99.90
31619;DHT22;18230;51.502;7.108;2024-01-30T10:40:43;12.80;99.90
31619;DHT22;18230;51.502;7.108;2024-01-30T10:45:45;12.90;99.90
31619;DHT22;18230;51.502;7.108;2024-01-30T10:50:50;12.90;99.90
31619;DHT22;18230;51.502;7.108;2024-01-30T10:55:52;13.00;99.90
31619;DHT22;18230;51.502;7.108;2024-01-30T11:00:54;13.00;99.90
31619;DHT22;18230;51.502;7.108;2024-01-30T11:05:59;13.10;99.90
31619;DHT22;18230;51.502;7.108;2024-01-30T11:11:00;13.10;99.90
31619;DHT22;18230;51.502;7.108;2024-01-30T11:16:02;13.10;99.90
31619;DHT22;18230;51.502;7.108;2024-01-30T11:21:05;13.20;99.90
31619;DHT22;18230;51.502;7.108;2024-01-30T11:26:05;13.20;99.90
31619;DHT22;18230;51.502;7.108;2024-01-30T11:31:06;13.30;99.90
31619;DHT22;18230;51.502;7.108;2024-01-30T11:36:08;13.30;99.90
31619;DHT22;18230;51.502;7.108;2024-01-30T11:41:09;13.30;99.90
31619;DHT22;18230;51.502;7.108;2024-01-30T11:46:10;13.30;99.90
31619;DHT22;18230;51.502;7.108;2024-01-30T11:51:12;13.20;99.90
31619;DHT22;18230;51.502;7.108;2024-01-30T11:56:13;13.30;99.90
31619;DHT22;18230;51.502;7.108;2024-01-30T12:01:17;13.20;99.90
31619;DHT22;18230;51.502;7.108;2024-01-30T12:06:21;13.10;99.90
31619;DHT22;18230;51.502;7.108;2024-01-30T12:11:29;13.20;99.90
31619;DHT22;18230;51.502;7.108;2024-01-30T12:16:30;13.10;99.90
31619;DHT22;18230;51.502;7.108;2024-01-30T12:21:31;13.10;99.90
31619;DHT22;18230;51.502;7.108;2024-01-30T12:26:32;13.10;99.90
31619;DHT22;18230;51.502;7.108;2024-01-30T12:31:32;13.10;99.90
31619;DHT22;18230;51.502;7.108;2024-01-30T12:36:34;13.20;99.90
31619;DHT22;18230;51.502;7.108;2024-01-30T12:41:34;13.20;99.90
31619;DHT22;18230;51.502;7.108;2024-01-30T12:46:35;13.20;99.90
31619;DHT22;18230;51.502;7.108;2024-01-30T12:51:37;13.20;99.90
31619;DHT22;18230;51.502;7.108;2024-01-30T12:56:38;13.20;99.90
31619;DHT22;18230;51.502;7.108;2024-01-30T13:01:39;13.10;99.90
31619;DHT22;18230;51.502;7.108;2024-01-30T13:06:39;13.20;99.90
31619;DHT22;18230;51.502;7.108;2024-01-30T13:11:40;13.10;99.90
31619;DHT22;18230;51.502;7.108;2024-01-30T13:16:41;13.00;99.90
31619;DHT22;18230;51.502;7.108;2024-01-30T13:21:42;13.00;99.90
31619;DHT22;18230;51.502;7.108;2024-01-30T13:26:43;13.00;99.90
31619;DHT22;18230;51.502;7.108;2024-01-30T13:31:44;13.00;99.90
31619;DHT22;18230;51.502;7.108;2024-01-30T13:36:46;13.00;99.90
31619;DHT22;18230;51.502;7.108;2024-01-30T13:41:49;12.90;99.90
31619;DHT22;18230;51.502;7.108;2024-01-30T13:46:50;12.90;99.90
31619;DHT22;18230;51.502;7.108;2024-01-30T13:51:50;12.90;99.90
31619;DHT22;18230;51.502;7.108;2024-01-30T13:56:51;12.90;99.90
31619;DHT22;18230;51.502;7.108;2024-01-30T14:01:52;12.80;99.90
31619;DHT22;18230;51.502;7.108;2024-01-30T14:06:53;12.90;99.90
31619;DHT22;18230;51.502;7.108;2024-01-30T14:11:55;12.90;99.90
31619;DHT22;18230;51.502;7.108;2024-01-30T14:16:55;12.80;99.90
31619;DHT22;18230;51.502;7.108;2024-01-30T14:21:56;12.80;99.90
31619;DHT22;18230;51.502;7.108;2024-01-30T14:26:57;12.80;99.90
31619;DHT22;18230;51.502;7.108;2024-01-30T14:31:59;12.90;99.90
31619;DHT22;18230;51.502;7.108;2024-01-30T14:37:00;12.90;99.90
31619;DHT22;18230;51.502;7.108;2024-01-30T14:42:01;12.90;99.90
31619;DHT22;18230;51.502;7.108;2024-01-30T14:47:02;12.90;99.90
31619;DHT22;18230;51.502;7.108;2024-01-30T14:52:02;12.90;99.90
31619;DHT22;18230;51.502;7.108;2024-01-30T14:57:04;12.90;99.90
31619;DHT22;18230;51.502;7.108;2024-01-30T15:02:08;12.80;99.90
31619;DHT22;18230;51.502;7.108;2024-01-30T15:07:09;12.80;99.90
31619;DHT22;18230;51.502;7.108;2024-01-30T15:12:10;12.70;99.90
31619;DHT22;18230;51.502;7.108;2024-01-30T15:17:10;12.60;99.90
31619;DHT22;18230;51.502;7.108;2024-01-30T15:22:11;12.60;99.90
31619;DHT22;18230;51.502;7.108;2024-01-30T15:27:12;12.50;99.90
31619;DHT22;18230;51.502;7.108;2024-01-30T15:32:12;12.40;99.90
31619;DHT22;18230;51.502;7.108;2024-01-30T15:37:15;12.30;99.90
31619;DHT22;18230;51.502;7.108;2024-01-30T15:42:17;12.20;99.90
31619;DHT22;18230;51.502;7.108;2024-01-30T15:47:18;12.10;99.90
31619;DHT22;18230;51.502;7.108;2024-01-30T15:52:19;12.10;99.90
31619;DHT22;18230;51.502;7.108;2024-01-30T15:57:19;12.00;99.90
31619;DHT22;18230;51.502;7.108;2024-01-30T16:02:20;12.00;99.90
31619;DHT22;18230;51.502;7.108;2024-01-30T16:07:21;11.90;99.90
31619;DHT22;18230;51.502;7.108;2024-01-30T16:12:22;11.80;99.90
31619;DHT22;18230;51.502;7.108;2024-01-30T16:17:22;11.70;99.90
31619;DHT22;18230;51.502;7.108;2024-01-30T16:22:25;11.70;99.90
31619;DHT22;18230;51.502;7.108;2024-01-30T16:27:26;11.70;99.90
31619;DHT22;18230;51.502;7.108;2024-01-30T16:32:27;11.60;99.90
31619;DHT22;18230;51.502;7.108;2024-01-30T16:37:31;11.60;99.90
31619;DHT22;18230;51.502;7.108;2024-01-30T16:42:32;11.50;99.90
31619;DHT22;18230;51.502;7.108;2024-01-30T16:47:32;11.40;99.90
31619;DHT22;18230;51.502;7.108;2024-01-30T16:52:33;11.40;99.90
31619;DHT22;18230;51.502;7.108;2024-01-30T16:57:34;11.30;99.90
31619;DHT22;18230;51.502;7.108;2024-01-30T17:02:34;11.10;99.90
31619;DHT22;18230;51.502;7.108;2024-01-30T17:07:36;11.20;99.90
31619;DHT22;18230;51.502;7.108;2024-01-30T17:12:36;11.20;99.90
31619;DHT22;18230;51.502;7.108;2024-01-30T17:17:37;11.20;99.90
31619;DHT22;18230;51.502;7.108;2024-01-30T17:22:40;11.20;99.90
31619;DHT22;18230;51.502;7.108;2024-01-30T17:27:41;11.20;99.90
31619;DHT22;18230;51.502;7.108;2024-01-30T17:32:42;11.10;99.90
31619;DHT22;18230;51.502;7.108;2024-01-30T17:37:42;11.10;99.90
31619;DHT22;18230;51.502;7.108;2024-01-30T17:42:43;11.00;99.90
31619;DHT22;18230;51.502;7.108;2024-01-30T17:47:44;10.90;99.90
31619;DHT22;18230;51.502;7.108;2024-01-30T17:52:45;10.80;99.90
31619;DHT22;18230;51.502;7.108;2024-01-30T17:57:46;10.60;99.90
31619;DHT22;18230;51.502;7.108;2024-01-30T18:02:47;10.40;99.90
31619;DHT22;18230;51.502;7.108;2024-01-30T18:07:47;10.30;99.90
31619;DHT22;18230;51.502;7.108;2024-01-30T18:12:48;10.30;99.90
31619;DHT22;18230;51.502;7.108;2024-01-30T18:17:51;10.30;99.90
31619;DHT22;18230;51.502;7.108;2024-01-30T18:22:52;10.30;99.90
31619;DHT22;18230;51.502;7.108;2024-01-30T18:27:53;10.30;99.90
31619;DHT22;18230;51.502;7.108;2024-01-30T18:32:53;10.20;99.90
31619;DHT22;18230;51.502;7.108;2024-01-30T18:37:54;10.20;99.90
31619;DHT22;18230;51.502;7.108;2024-01-30T18:42:55;10.20;99.90
31619;DHT22;18230;51.502;7.108;2024-01-30T18:47:56;10.20;99.90
31619;DHT22;18230;51.502;7.108;2024-01-30T18:52:56;10.10;99.90
31619;DHT22;18230;51.502;7.108;2024-01-30T18:57:57;10.00;99.90
31619;DHT22;18230;51.502;7.108;2024-01-30T19:02:58;10.00;99.90
31619;DHT22;18230;51.502;7.108;2024-01-30T19:07:59;10.00;99.90
31619;DHT22;18230;51.502;7.108;2024-01-30T19:13:00;10.00;99.90
31619;DHT22;18230;51.502;7.108;2024-01-30T19:18:01;9.90;99.90
31619;DHT22;18230;51.502;7.108;2024-01-30T19:23:02;10.00;99.90
31619;DHT22;18230;51.502;7.108;2024-01-30T19:28:03;10.00;99.90
31619;DHT22;18230;51.502;7.108;2024-01-30T19:33:04;9.90;99.90
31619;DHT22;18230;51.502;7.108;2024-01-30T19:38:04;9.90;99.90
31619;DHT22;18230;51.502;7.108;2024-01-30T19:43:05;9.80;99.90
31619;DHT22;18230;51.502;7.108;2024-01-30T19:48:06;9.90;99.90
31619;DHT22;18230;51.502;7.108;2024-01-30T19:53:07;9.70;99.90
31619;DHT22;18230;51.502;7.108;2024-01-30T19:58:07;9.70;99.90
31619;DHT22;18230;51.502;7.108;2024-01-30T20:03:08;9.60;99.90
31619;DHT22;18230;51.502;7.108;2024-01-30T20:08:09;9.60;99.90
31619;DHT22;18230;51.502;7.108;2024-01-30T20:13:09;9.60;99.90
31619;DHT22;18230;51.502;7.108;2024-01-30T20:18:10;9.60;99.90
31619;DHT22;18230;51.502;7.108;2024-01-30T20:23:10;9.60;99.90
31619;DHT22;18230;51.502;7.108;2024-01-30T20:28:11;9.70;99.90
31619;DHT22;18230;51.502;7.108;2024-01-30T20:33:13;9.50;99.90
31619;DHT22;18230;51.502;7.108;2024-01-30T20:38:16;9.40;99.90
31619;DHT22;18230;51.502;7.108;2024-01-30T20:43:16;9.40;99.90
31619;DHT22;18230;51.502;7.108;2024-01-30T20:48:17;9.40;99.90
31619;DHT22;18230;51.502;7.108;2024-01-30T20:53:20;9.40;99.90
31619;DHT22;18230;51.502;7.108;2024-01-30T20:58:21;9.50;99.90
31619;DHT22;18230;51.502;7.108;2024-01-30T21:03:22;9.40;99.90
31619;DHT22;18230;51.502;7.108;2024-01-30T21:08:22;9.40;99.90
31619;DHT22;18230;51.502;7.108;2024-01-30T21:13:23;9.40;99.90
31619;DHT22;18230;51.502;7.108;2024-01-30T21:18:24;9.40;99.90
31619;DHT22;18230;51.502;7.108;2024-01-30T21:23:24;9.30;99.90
31619;DHT22;18230;51.502;7.108;2024-01-30T21:28:25;9.30;99.90
31619;DHT22;18230;51.502;7.108;2024-01-30T21:33:26;9.20;99.90
31619;DHT22;18230;51.502;7.108;2024-01-30T21:38:27;9.20;99.90
31619;DHT22;18230;51.502;7.108;2024-01-30T21:43:27;9.20;99.90
31619;DHT22;18230;51.502;7.108;2024-01-30T21:48:28;9.10;99.90
31619;DHT22;18230;51.502;7.108;2024-01-30T21:53:30;9.10;99.90
31619;DHT22;18230;51.502;7.108;2024-01-30T21:58:30;9.10;99.90
31619;DHT22;18230;51.502;7.108;2024-01-30T22:03:31;9.10;99.90
31619;DHT22;18230;51.502;7.108;2024-01-30T22:08:32;9.10;99.90
31619;DHT22;18230;51.502;7.108;2024-01-30T22:13:32;9.10;99.90
31619;DHT22;18230;51.502;7.108;2024-01-30T22:18:33;9.00;99.90
31619;DHT22;18230;51.502;7.108;2024-01-30T22:23:34;9.00;99.90
31619;DHT22;18230;51.502;7.108;2024-01-30T22:28:35;9.00;99.90
31619;DHT22;18230;51.502;7.108;2024-01-30T22:33:36;9.00;99.90
31619;DHT22;18230;51.502;7.108;2024-01-30T22:38:37;9.00;99.90
31619;DHT22;18230;51.502;7.108;2024-01-30T22:43:38;9.00;99.90
31619;DHT22;18230;51.502;7.108;2024-01-30T22:48:42;9.00;99.90
31619;DHT22;18230;51.502;7.108;2024-01-30T22:53:45;8.90;99.90
31619;DHT22;18230;51.502;7.108;2024-01-30T22:58:47;9.00;99.90
31619;DHT22;18230;51.502;7.108;2024-01-30T23:03:48;8.90;99.90
31619;DHT22;18230;51.502;7.108;2024-01-30T23:08:49;8.90;99.90
31619;DHT22;18230;51.502;7.108;2024-01-30T23:13:49;8.80;99.90
31619;DHT22;18230;51.502;7.108;2024-01-30T23:18:50;8.80;99.90
31619;DHT22;18230;51.502;7.108;2024-01-30T23:23:51;8.60;99.90
31619;DHT22;18230;51.502;7.108;2024-01-30T23:28:51;8.70;99.90
31619;DHT22;18230;51.502;7.108;2024-01-30T23:33:52;8.40;99.90
31619;DHT22;18230;51.502;7.108;2024-01-30T23:38:53;8.40;99.90
31619;DHT22;18230;51.502;7.108;2024-01-30T23:43:53;8.30;99.90
31619;DHT22;18230;51.502;7.108;2024-01-30T23:48:54;8.30;99.90
31619;DHT22;18230;51.502;7.108;2024-01-30T23:53:54;8.30;99.90
31619;DHT22;18230;51.502;7.108;2024-01-30T23:58:55;8.30;99.90
